createdAt,value
2022-10-18T00:02:20.388Z,99913.33
2022-10-18T00:05:32.713Z,99916.94
2022-10-18T00:08:45.453Z,99912.73
2022-10-18T00:11:57.557Z,99910.89
2022-10-18T00:15:12.756Z,99908.86
2022-10-18T00:18:25.724Z,99907.23
2022-10-18T00:21:38.107Z,99912.56
2022-10-18T00:24:50.479Z,99899.63
2022-10-18T00:28:02.408Z,99908.69
2022-10-18T00:31:26.094Z,99892.99
2022-10-18T00:34:38.052Z,99893.59
2022-10-18T00:37:50.074Z,99895.52
2022-10-18T00:41:02.057Z,99890.33
2022-10-18T00:44:45.528Z,99888.88
2022-10-18T00:48:01.184Z,99892.45
2022-10-18T00:51:13.490Z,99894.38
2022-10-18T00:54:27.234Z,99892.23
2022-10-18T00:57:39.983Z,99884.98
2022-10-18T01:00:52.125Z,99878.69
2022-10-18T01:04:04.622Z,99888.84
2022-10-18T01:07:25.040Z,99890.53
2022-10-18T01:10:44.442Z,99891.13
2022-10-18T01:14:08.333Z,99887.95
2022-10-18T01:17:25.506Z,99881.43
2022-10-18T01:21:06.493Z,99890.05
2022-10-18T01:24:55.503Z,99893.64
2022-10-18T01:28:20.180Z,99892.66
2022-10-18T01:31:36.191Z,99894.11
2022-10-18T01:34:52.094Z,99899.67
2022-10-18T01:38:09.659Z,99900.41
2022-10-18T01:41:24.870Z,99892.05
2022-10-18T01:44:39.015Z,99882.49
2022-10-18T01:47:53.171Z,99881.42
2022-10-18T01:51:05.102Z,99885.02
2022-10-18T01:54:19.951Z,99875.50
2022-10-18T01:57:37.907Z,99871.59
2022-10-18T02:00:50.286Z,99865.55
2022-10-18T02:04:08.448Z,99877.50
2022-10-18T02:07:28.068Z,99876.89
2022-10-18T02:10:44.458Z,99882.69
2022-10-18T02:14:01.219Z,99876.49
2022-10-18T02:17:16.132Z,99875.61
2022-10-18T02:20:32.313Z,99883.63
2022-10-18T02:23:44.980Z,99880.05
2022-10-18T02:26:56.776Z,99880.73
2022-10-18T02:30:09.611Z,99882.94
2022-10-18T02:33:26.802Z,99880.94
2022-10-18T02:36:44.510Z,99876.44
2022-10-18T02:39:57.790Z,99877.64
2022-10-18T02:43:11.648Z,99878.94
2022-10-18T02:46:23.831Z,99875.94
2022-10-18T02:49:35.650Z,99871.60
2022-10-18T02:52:47.418Z,99879.56
2022-10-18T02:55:59.069Z,99873.08
2022-10-18T02:59:10.732Z,99869.19
2022-10-18T03:02:22.402Z,99874.81
2022-10-18T03:05:34.000Z,99874.70
2022-10-18T03:08:45.801Z,99875.67
2022-10-18T03:11:57.432Z,99879.56
2022-10-18T03:15:10.713Z,99886.16
2022-10-18T03:18:22.395Z,99874.70
2022-10-18T03:21:34.086Z,99869.25
2022-10-18T03:24:45.847Z,99869.59
2022-10-18T03:27:57.737Z,99878.58
2022-10-18T03:31:10.672Z,99883.67
2022-10-18T03:34:22.498Z,99874.24
2022-10-18T03:37:34.247Z,99866.20
2022-10-18T03:40:45.882Z,99872.48
2022-10-18T03:43:57.509Z,99873.59
2022-10-18T03:47:09.345Z,99874.57
2022-10-18T03:50:21.608Z,99878.41
2022-10-18T03:53:33.282Z,99878.64
2022-10-18T03:56:45.093Z,99882.27
2022-10-18T03:59:56.816Z,99880.86
2022-10-18T04:03:08.575Z,99882.35
2022-10-18T04:06:20.394Z,99870.20
2022-10-18T04:09:32.188Z,99877.17
2022-10-18T04:12:43.934Z,99873.67
2022-10-18T04:15:55.819Z,99867.94
2022-10-18T04:19:07.565Z,99870.89
2022-10-18T04:22:20.310Z,99882.97
2022-10-18T04:25:32.938Z,99876.42
2022-10-18T04:28:45.023Z,99880.88
2022-10-18T04:31:57.004Z,99880.23
2022-10-18T04:35:09.868Z,99875.37
2022-10-18T04:38:21.536Z,99882.23
2022-10-18T04:41:33.254Z,99887.97
2022-10-18T04:44:47.559Z,99886.59
2022-10-18T04:47:59.310Z,99892.77
2022-10-18T04:51:11.718Z,99889.58
2022-10-18T04:54:26.462Z,99889.30
2022-10-18T04:57:37.280Z,99887.70
2022-10-18T05:00:49.646Z,99885.80
2022-10-18T05:04:01.930Z,99887.05
2022-10-18T05:07:13.625Z,99886.84
2022-10-18T05:10:25.467Z,99890.44
2022-10-18T05:13:38.316Z,99895.53
2022-10-18T05:16:50.027Z,99890.23
2022-10-18T05:20:01.898Z,99896.71
2022-10-18T05:23:14.164Z,99904.43
2022-10-18T05:26:25.982Z,99911.45
2022-10-18T05:29:38.107Z,99910.36
2022-10-18T05:32:49.807Z,99903.38
2022-10-18T05:36:01.667Z,99902.32
2022-10-18T05:39:13.707Z,99902.75
2022-10-18T05:42:25.423Z,99898.50
2022-10-18T05:45:37.237Z,99904.61
2022-10-18T05:48:51.416Z,99904.91
2022-10-18T05:52:03.281Z,99901.72
2022-10-18T05:55:15.737Z,99898.87
2022-10-18T05:58:27.557Z,99905.41
2022-10-18T06:01:39.298Z,99910.72
2022-10-18T06:04:51.219Z,99909.45
2022-10-18T06:08:06.476Z,99911.11
2022-10-18T06:11:20.579Z,99914.67
2022-10-18T06:14:32.197Z,99905.31
2022-10-18T06:17:43.857Z,99915.56
2022-10-18T06:20:58.058Z,99912.42
2022-10-18T06:24:10.706Z,99911.35
2022-10-18T06:27:22.501Z,99903.83
2022-10-18T06:30:46.238Z,99897.04
2022-10-18T06:33:59.627Z,99897.28
2022-10-18T06:37:19.013Z,99899.42
2022-10-18T06:40:33.872Z,99891.63
2022-10-18T06:43:58.190Z,99886.11
2022-10-18T06:47:11.640Z,99900.34
2022-10-18T06:50:23.786Z,99901.31
2022-10-18T06:53:44.018Z,99903.84
2022-10-18T06:56:54.467Z,99893.80
2022-10-18T07:00:07.306Z,99903.55
2022-10-18T07:03:19.081Z,99898.77
2022-10-18T07:06:42.805Z,99885.19
2022-10-18T07:13:52.639Z,99884.95
2022-10-18T07:17:06.473Z,99890.14
2022-10-18T07:20:19.225Z,99885.62
2022-10-18T07:23:30.936Z,99886.59
2022-10-18T07:26:42.863Z,99887.39
2022-10-18T07:33:10.810Z,99880.59
2022-10-18T07:36:24.452Z,99876.04
2022-10-18T07:39:36.521Z,99878.72
2022-10-18T07:42:48.245Z,99868.05
2022-10-18T07:46:05.613Z,99868.63
2022-10-18T07:49:18.089Z,99867.00
2022-10-18T07:52:29.923Z,99864.60
2022-10-18T07:55:41.627Z,99866.47
2022-10-18T07:58:55.474Z,99851.92
2022-10-18T08:02:07.543Z,99855.67
2022-10-18T08:05:37.169Z,99851.47
2022-10-18T08:08:52.122Z,99846.34
2022-10-18T08:12:03.921Z,99848.02
2022-10-18T08:15:17.251Z,99834.67
2022-10-18T08:18:29.061Z,99837.83
2022-10-18T08:21:40.691Z,99834.52
2022-10-18T08:24:52.388Z,99827.61
2022-10-18T08:28:05.312Z,99814.38
2022-10-18T08:31:21.764Z,99816.48
2022-10-18T08:34:34.154Z,99812.17
2022-10-18T08:37:46.186Z,99813.21
2022-10-18T08:40:58.585Z,99808.92
2022-10-18T08:44:17.716Z,99801.64
2022-10-18T08:47:34.542Z,99789.50
2022-10-18T08:50:48.358Z,99791.55
2022-10-18T08:54:07.147Z,99779.09
2022-10-18T08:57:22.530Z,99785.30
2022-10-18T09:00:38.592Z,99778.11
2022-10-18T09:04:22.545Z,99781.73
2022-10-18T09:08:03.650Z,99773.80
2022-10-18T09:11:28.350Z,99765.42
2022-10-18T09:14:58.761Z,99764.16
2022-10-18T09:18:27.337Z,99760.00
2022-10-18T09:21:48.802Z,99763.00
2022-10-18T09:25:07.433Z,99754.86
2022-10-18T09:28:27.550Z,99752.48
2022-10-18T09:32:13.663Z,99741.80
2022-10-18T09:35:30.523Z,99730.52
2022-10-18T10:38:40.802Z,99652.89
2022-10-18T11:01:39.251Z,99608.35
2022-10-18T11:11:12.974Z,99597.05
2022-10-18T11:17:37.337Z,99579.67
2022-10-18T11:23:51.222Z,99560.30
2022-10-18T11:34:07.708Z,99559.06
2022-10-18T11:37:26.276Z,99550.91
2022-10-18T11:40:37.449Z,99546.95
2022-10-18T11:44:02.712Z,99533.11
2022-10-18T11:47:16.442Z,99524.61
2022-10-18T11:50:36.990Z,99516.29
2022-10-18T11:53:55.732Z,99522.77
2022-10-18T11:57:13.698Z,99520.02
2022-10-18T12:00:39.398Z,99508.88
2022-10-18T12:04:01.643Z,99508.91
2022-10-18T12:07:21.172Z,99506.81
2022-10-18T12:10:44.393Z,99503.05
2022-10-18T12:13:54.706Z,99497.47
2022-10-18T12:17:51.011Z,99499.34
2022-10-18T12:20:34.340Z,99490.80
2022-10-18T12:23:53.601Z,99482.69
2022-10-18T12:27:08.365Z,99481.84
2022-10-18T12:30:27.147Z,99475.79
2022-10-18T12:33:44.878Z,99475.59
2022-10-18T12:37:38.796Z,99470.53
2022-10-18T12:40:54.717Z,99464.29
2022-10-18T12:44:10.702Z,99459.50
2022-10-18T12:47:30.466Z,99454.27
2022-10-18T12:50:45.897Z,99452.36
2022-10-18T12:54:04.655Z,99455.91
2022-10-18T12:57:27.814Z,99448.42
2022-10-18T13:01:05.385Z,99439.85
2022-10-18T13:04:39.395Z,99441.69
2022-10-18T13:07:51.375Z,99443.77
2022-10-18T13:11:36.406Z,99439.63
2022-10-18T13:15:24.347Z,99442.25
2022-10-18T13:18:27.957Z,99428.88
2022-10-18T13:21:50.844Z,99421.81
2022-10-18T13:25:10.271Z,99404.91
2022-10-18T13:28:33.914Z,99410.92
2022-10-18T13:31:51.433Z,99406.35
2022-10-18T13:35:03.484Z,99410.72
2022-10-18T13:38:31.911Z,99396.52
2022-10-18T13:42:24.844Z,99393.13
2022-10-18T13:46:04.076Z,99381.84
2022-10-18T13:49:31.105Z,99383.67
2022-10-18T13:52:53.023Z,99373.40
2022-10-18T13:56:50.959Z,99374.20
2022-10-18T14:00:22.976Z,99365.23
2022-10-18T14:04:16.638Z,99363.32
2022-10-18T14:07:30.670Z,99359.72
2022-10-18T14:11:01.902Z,99353.45
2022-10-18T14:14:11.254Z,99355.73
2022-10-18T14:17:31.565Z,99345.71
2022-10-18T14:24:00.013Z,99353.97
2022-10-18T14:27:26.157Z,99346.03
2022-10-18T14:30:38.304Z,99341.24
2022-10-18T14:33:57.286Z,99341.83
2022-10-18T14:37:07.628Z,99340.17
2022-10-18T14:40:35.854Z,99338.43
2022-10-18T14:43:48.579Z,99341.45
2022-10-18T14:47:07.959Z,99339.93
2022-10-18T14:50:31.083Z,99300.21
2022-10-18T14:53:45.681Z,99331.05
2022-10-18T14:56:57.778Z,99328.05
2022-10-18T15:00:20.670Z,99318.80
2022-10-18T15:03:35.777Z,99322.59
2022-10-18T15:06:52.574Z,99325.17
2022-10-18T15:10:06.432Z,99325.36
2022-10-18T15:13:20.698Z,99321.04
2022-10-18T15:16:35.581Z,99317.41
2022-10-18T15:20:01.795Z,99311.31
2022-10-18T15:23:28.276Z,99315.77
2022-10-18T15:26:38.397Z,99319.30
2022-10-18T15:29:50.409Z,99313.30
2022-10-18T15:33:05.222Z,99321.14
2022-10-18T15:36:26.204Z,99316.02
2022-10-18T15:39:38.386Z,99314.80
2022-10-18T15:42:50.615Z,99309.14
2022-10-18T15:46:06.720Z,99305.34
2022-10-18T15:49:58.297Z,99304.30
2022-10-18T15:53:37.817Z,99293.42
2022-10-18T15:56:50.752Z,99297.88
2022-10-18T16:00:08.957Z,99302.42
2022-10-18T16:03:28.357Z,99299.98
2022-10-18T16:06:41.350Z,99307.47
2022-10-18T16:09:53.065Z,99299.13
2022-10-18T16:13:04.864Z,99296.97
2022-10-18T16:16:21.627Z,99291.27
2022-10-18T16:19:33.631Z,99302.56
2022-10-18T16:22:45.503Z,99304.59
2022-10-18T16:25:58.423Z,99304.28
2022-10-18T16:29:11.794Z,99308.85
2022-10-18T16:32:23.883Z,99317.63
2022-10-18T16:35:35.943Z,99308.06
2022-10-18T16:44:49.303Z,99313.02
2022-10-18T16:48:02.958Z,99314.86
2022-10-18T16:51:18.899Z,99308.83
2022-10-18T16:54:32.813Z,99308.50
2022-10-18T16:57:45.060Z,99311.04
2022-10-18T17:00:58.619Z,99313.73
2022-10-18T17:04:12.417Z,99306.14
2022-10-18T17:07:30.280Z,99314.73
2022-10-18T17:10:44.154Z,99315.44
2022-10-18T17:14:01.221Z,99320.15
2022-10-18T17:20:23.326Z,99327.40
2022-10-18T17:23:36.611Z,99328.58
2022-10-18T17:26:48.407Z,99331.49
2022-10-18T17:30:01.627Z,99332.53
2022-10-18T17:33:14.887Z,99339.27
2022-10-18T17:36:26.976Z,99334.95
2022-10-18T17:39:39.847Z,99340.66
2022-10-18T17:42:51.851Z,99336.81
2022-10-18T17:46:04.078Z,99343.55
2022-10-18T17:49:16.927Z,99347.73
2022-10-18T17:52:28.932Z,99350.42
2022-10-18T17:55:41.057Z,99343.55
2022-10-18T17:58:56.007Z,99346.73
2022-10-18T18:02:07.910Z,99344.72
2022-10-18T18:05:19.804Z,99342.39
2022-10-18T18:08:32.103Z,99337.38
2022-10-18T18:11:48.122Z,99346.43
2022-10-18T18:15:00.040Z,99336.06
2022-10-18T18:18:12.081Z,99347.11
2022-10-18T18:24:53.478Z,99350.66
2022-10-18T18:28:07.620Z,99352.98
2022-10-18T18:31:23.510Z,99338.41
2022-10-18T18:34:36.553Z,99344.46
2022-10-18T18:37:48.505Z,99346.34
2022-10-18T18:41:10.891Z,99347.83
2022-10-18T18:44:25.033Z,99351.20
2022-10-18T18:50:38.053Z,99343.50
2022-10-18T18:53:53.721Z,99343.99
2022-10-18T18:57:08.212Z,99356.25
2022-10-18T19:00:22.722Z,99355.57
2022-10-18T19:03:34.561Z,99361.93
2022-10-18T19:06:51.409Z,99350.21
2022-10-18T19:13:04.076Z,99349.86
2022-10-18T19:16:34.351Z,99363.45
2022-10-18T19:19:52.000Z,99359.59
2022-10-18T19:23:03.707Z,99365.45
2022-10-18T19:26:22.556Z,99355.56
2022-10-18T19:29:37.277Z,99361.11
2022-10-18T19:32:51.387Z,99367.95
2022-10-18T19:36:05.008Z,99367.09
2022-10-18T19:39:22.341Z,99360.89
2022-10-18T19:42:35.882Z,99374.63
2022-10-18T19:58:30.402Z,99378.33
2022-10-18T20:01:48.567Z,99377.66
2022-10-18T20:05:03.827Z,99382.18
2022-10-18T20:08:17.091Z,99387.06
2022-10-18T20:11:33.202Z,99387.74
2022-10-18T20:14:47.158Z,99393.44
2022-10-18T20:18:00.119Z,99397.29
2022-10-18T20:21:16.834Z,99394.61
2022-10-18T20:24:33.303Z,99395.45
2022-10-18T20:27:46.427Z,99395.45
2022-10-18T20:31:12.876Z,99395.27
2022-10-18T20:34:26.222Z,99405.69
2022-10-18T20:37:38.084Z,99410.39
2022-10-18T20:40:50.014Z,99417.60
2022-10-18T20:44:03.663Z,99428.52
2022-10-18T20:47:15.439Z,99469.95
2022-10-18T20:50:27.357Z,99480.48
2022-10-18T20:53:40.667Z,99494.89
2022-10-18T20:56:52.318Z,99499.52
2022-10-18T21:00:04.193Z,99503.06
2022-10-18T21:03:16.001Z,99515.94
2022-10-18T21:06:31.906Z,99514.95
2022-10-18T21:09:43.766Z,99515.73
2022-10-18T21:12:56.302Z,99517.92
2022-10-18T21:16:09.766Z,99523.44
2022-10-18T21:19:24.050Z,99524.04
2022-10-18T21:22:35.963Z,99525.33
2022-10-18T21:25:53.042Z,99533.45
2022-10-18T21:29:05.734Z,99536.65
2022-10-18T21:32:17.502Z,99533.28
2022-10-18T21:35:31.140Z,99542.69
2022-10-18T21:38:43.091Z,99541.71
2022-10-18T21:41:55.334Z,99541.02
2022-10-18T21:45:07.097Z,99541.47
2022-10-18T21:48:18.911Z,99541.00
2022-10-18T21:51:32.642Z,99549.52
2022-10-18T21:54:44.462Z,99550.50
2022-10-18T21:57:56.063Z,99548.39
2022-10-18T22:01:09.974Z,99547.64
2022-10-18T22:04:28.425Z,99544.11
2022-10-18T22:07:40.066Z,99546.95
2022-10-18T22:10:51.759Z,99543.14
2022-10-18T22:14:04.176Z,99528.98
2022-10-18T22:17:15.773Z,99530.91
2022-10-18T22:20:27.431Z,99525.30
2022-10-18T22:23:43.856Z,99529.86
2022-10-18T22:26:55.671Z,99526.55
2022-10-18T22:30:07.764Z,99533.70
2022-10-18T22:33:19.394Z,99533.55
2022-10-18T22:36:32.317Z,99538.58
2022-10-18T22:39:43.918Z,99534.92
2022-10-18T22:42:57.411Z,99542.09
2022-10-18T22:46:11.342Z,99533.23
2022-10-18T22:49:23.106Z,99536.06
2022-10-18T22:52:35.152Z,99535.52
2022-10-18T22:55:48.688Z,99526.22
2022-10-18T22:59:00.285Z,99535.52
2022-10-18T23:02:11.941Z,99537.40
2022-10-18T23:05:23.792Z,99543.72
2022-10-18T23:08:36.079Z,99539.91
2022-10-18T23:11:48.151Z,99538.94
2022-10-18T23:14:59.823Z,99543.59
2022-10-18T23:18:11.595Z,99539.63
2022-10-18T23:21:24.507Z,99546.56
2022-10-18T23:24:36.434Z,99536.72
2022-10-18T23:27:48.194Z,99549.38
2022-10-18T23:30:59.808Z,99544.32
2022-10-18T23:34:12.085Z,99548.84
2022-10-18T23:37:23.735Z,99541.80
2022-10-18T23:40:35.486Z,99553.61
2022-10-18T23:43:48.396Z,99556.28
2022-10-18T23:47:00.103Z,99551.64
2022-10-18T23:50:14.162Z,99556.16
2022-10-18T23:53:26.659Z,99556.98
2022-10-18T23:56:38.452Z,99549.81
2022-10-18T23:59:50.101Z,99549.13
